sensor_id;sensor_type;location;lat;lon;timestamp;temperature;humidity
21625;DHT22;10974;51.034;3.744;2022-08-19T00:01:36;22.70;99.90
21625;DHT22;10974;51.034;3.744;2022-08-19T00:04:05;22.60;99.90
21625;DHT22;10974;51.034;3.744;2022-08-19T00:06:31;22.70;99.90
21625;DHT22;10974;51.034;3.744;2022-08-19T00:08:58;22.70;99.90
21625;DHT22;10974;51.034;3.744;2022-08-19T00:11:26;22.70;99.90
21625;DHT22;10974;51.034;3.744;2022-08-19T00:13:54;22.60;99.90
21625;DHT22;10974;51.034;3.744;2022-08-19T00:16:20;22.50;99.90
21625;DHT22;10974;51.034;3.744;2022-08-19T00:18:47;22.50;99.90
21625;DHT22;10974;51.034;3.744;2022-08-19T00:21:14;22.50;99.90
21625;DHT22;10974;51.034;3.744;2022-08-19T00:23:40;22.50;99.90
21625;DHT22;10974;51.034;3.744;2022-08-19T00:26:07;22.50;99.90
21625;DHT22;10974;51.034;3.744;2022-08-19T00:28:33;22.50;99.90
21625;DHT22;10974;51.034;3.744;2022-08-19T00:31:05;22.40;1.00
21625;DHT22;10974;51.034;3.744;2022-08-19T00:33:31;22.40;99.90
21625;DHT22;10974;51.034;3.744;2022-08-19T00:36:02;22.50;99.90
21625;DHT22;10974;51.034;3.744;2022-08-19T00:38:30;22.50;99.90
21625;DHT22;10974;51.034;3.744;2022-08-19T00:40:56;22.40;80.30
21625;DHT22;10974;51.034;3.744;2022-08-19T00:43:24;22.40;62.60
21625;DHT22;10974;51.034;3.744;2022-08-19T00:45:50;22.40;51.40
21625;DHT22;10974;51.034;3.744;2022-08-19T00:48:17;22.40;1.00
21625;DHT22;10974;51.034;3.744;2022-08-19T00:50:45;22.20;1.00
21625;DHT22;10974;51.034;3.744;2022-08-19T00:53:12;22.30;1.00
21625;DHT22;10974;51.034;3.744;2022-08-19T00:55:41;22.30;1.00
21625;DHT22;10974;51.034;3.744;2022-08-19T00:58:11;22.30;1.00
21625;DHT22;10974;51.034;3.744;2022-08-19T01:00:38;19.60;99.90
21625;DHT22;10974;51.034;3.744;2022-08-19T01:03:09;18.60;99.90
21625;DHT22;10974;51.034;3.744;2022-08-19T01:05:37;18.40;99.90
21625;DHT22;10974;51.034;3.744;2022-08-19T01:08:05;18.40;99.90
21625;DHT22;10974;51.034;3.744;2022-08-19T01:10:33;18.30;99.90
21625;DHT22;10974;51.034;3.744;2022-08-19T01:13:03;18.40;99.90
21625;DHT22;10974;51.034;3.744;2022-08-19T01:15:34;18.40;99.90
21625;DHT22;10974;51.034;3.744;2022-08-19T01:18:06;18.30;99.90
21625;DHT22;10974;51.034;3.744;2022-08-19T01:20:32;18.20;99.90
21625;DHT22;10974;51.034;3.744;2022-08-19T01:23:00;18.20;99.90
21625;DHT22;10974;51.034;3.744;2022-08-19T01:25:34;18.30;99.90
21625;DHT22;10974;51.034;3.744;2022-08-19T01:28:01;18.10;99.90
21625;DHT22;10974;51.034;3.744;2022-08-19T01:30:31;18.10;99.90
21625;DHT22;10974;51.034;3.744;2022-08-19T01:32:59;18.10;99.90
21625;DHT22;10974;51.034;3.744;2022-08-19T01:35:31;18.00;99.90
21625;DHT22;10974;51.034;3.744;2022-08-19T01:38:05;17.90;99.90
21625;DHT22;10974;51.034;3.744;2022-08-19T01:40:34;18.10;99.90
21625;DHT22;10974;51.034;3.744;2022-08-19T01:43:01;18.00;99.90
21625;DHT22;10974;51.034;3.744;2022-08-19T01:45:29;18.00;99.90
21625;DHT22;10974;51.034;3.744;2022-08-19T01:47:56;18.10;99.90
21625;DHT22;10974;51.034;3.744;2022-08-19T01:50:22;17.80;99.90
21625;DHT22;10974;51.034;3.744;2022-08-19T01:52:48;17.90;99.90
21625;DHT22;10974;51.034;3.744;2022-08-19T01:55:17;18.00;99.90
21625;DHT22;10974;51.034;3.744;2022-08-19T01:57:46;18.00;99.90
21625;DHT22;10974;51.034;3.744;2022-08-19T02:00:15;17.90;99.90
21625;DHT22;10974;51.034;3.744;2022-08-19T02:02:42;17.90;99.90
21625;DHT22;10974;51.034;3.744;2022-08-19T02:05:08;17.80;99.90
21625;DHT22;10974;51.034;3.744;2022-08-19T02:07:38;17.70;99.90
21625;DHT22;10974;51.034;3.744;2022-08-19T02:10:08;17.70;99.90
21625;DHT22;10974;51.034;3.744;2022-08-19T02:12:34;17.70;99.90
21625;DHT22;10974;51.034;3.744;2022-08-19T02:15:01;17.70;99.90
21625;DHT22;10974;51.034;3.744;2022-08-19T02:17:28;17.70;99.90
21625;DHT22;10974;51.034;3.744;2022-08-19T02:19:57;17.70;99.90
21625;DHT22;10974;51.034;3.744;2022-08-19T02:22:23;17.70;99.90
21625;DHT22;10974;51.034;3.744;2022-08-19T02:24:51;17.50;99.90
21625;DHT22;10974;51.034;3.744;2022-08-19T02:27:17;17.40;99.90
21625;DHT22;10974;51.034;3.744;2022-08-19T02:29:43;17.40;99.90
21625;DHT22;10974;51.034;3.744;2022-08-19T02:32:10;17.50;99.90
21625;DHT22;10974;51.034;3.744;2022-08-19T02:34:36;17.40;99.90
21625;DHT22;10974;51.034;3.744;2022-08-19T02:37:02;17.50;99.90
21625;DHT22;10974;51.034;3.744;2022-08-19T02:39:27;17.50;99.90
21625;DHT22;10974;51.034;3.744;2022-08-19T02:41:53;17.50;99.90
21625;DHT22;10974;51.034;3.744;2022-08-19T02:44:19;17.30;99.90
21625;DHT22;10974;51.034;3.744;2022-08-19T02:46:46;17.30;99.90
21625;DHT22;10974;51.034;3.744;2022-08-19T02:49:13;17.20;99.90
21625;DHT22;10974;51.034;3.744;2022-08-19T02:51:42;17.10;99.90
21625;DHT22;10974;51.034;3.744;2022-08-19T02:54:09;17.10;99.90
21625;DHT22;10974;51.034;3.744;2022-08-19T02:56:36;17.20;99.90
21625;DHT22;10974;51.034;3.744;2022-08-19T02:59:03;17.30;99.90
21625;DHT22;10974;51.034;3.744;2022-08-19T03:01:35;17.20;99.90
21625;DHT22;10974;51.034;3.744;2022-08-19T03:04:04;17.10;99.90
21625;DHT22;10974;51.034;3.744;2022-08-19T03:06:30;17.10;99.90
21625;DHT22;10974;51.034;3.744;2022-08-19T03:08:57;17.00;99.90
21625;DHT22;10974;51.034;3.744;2022-08-19T03:11:27;17.10;99.90
21625;DHT22;10974;51.034;3.744;2022-08-19T03:13:53;17.10;99.90
21625;DHT22;10974;51.034;3.744;2022-08-19T03:16:21;17.10;99.90
21625;DHT22;10974;51.034;3.744;2022-08-19T03:18:48;17.10;99.90
21625;DHT22;10974;51.034;3.744;2022-08-19T03:21:22;17.20;99.90
21625;DHT22;10974;51.034;3.744;2022-08-19T03:23:49;17.10;99.90
21625;DHT22;10974;51.034;3.744;2022-08-19T03:26:16;17.00;99.90
21625;DHT22;10974;51.034;3.744;2022-08-19T03:28:43;17.00;99.90
21625;DHT22;10974;51.034;3.744;2022-08-19T03:31:12;17.10;99.90
21625;DHT22;10974;51.034;3.744;2022-08-19T03:33:40;17.00;99.90
21625;DHT22;10974;51.034;3.744;2022-08-19T03:36:14;17.00;99.90
21625;DHT22;10974;51.034;3.744;2022-08-19T03:38:48;17.00;99.90
21625;DHT22;10974;51.034;3.744;2022-08-19T03:41:19;17.20;99.90
21625;DHT22;10974;51.034;3.744;2022-08-19T03:43:46;17.20;99.90
21625;DHT22;10974;51.034;3.744;2022-08-19T03:46:15;17.40;99.90
21625;DHT22;10974;51.034;3.744;2022-08-19T03:48:42;17.30;99.90
21625;DHT22;10974;51.034;3.744;2022-08-19T03:51:18;17.20;99.90
21625;DHT22;10974;51.034;3.744;2022-08-19T03:53:45;17.20;99.90
21625;DHT22;10974;51.034;3.744;2022-08-19T03:56:11;17.30;99.90
21625;DHT22;10974;51.034;3.744;2022-08-19T03:58:38;17.30;99.90
21625;DHT22;10974;51.034;3.744;2022-08-19T04:01:07;17.20;99.90
21625;DHT22;10974;51.034;3.744;2022-08-19T04:03:34;17.10;99.90
21625;DHT22;10974;51.034;3.744;2022-08-19T04:06:26;17.20;99.90
21625;DHT22;10974;51.034;3.744;2022-08-19T04:08:53;17.10;99.90
21625;DHT22;10974;51.034;3.744;2022-08-19T04:11:22;17.10;99.90
21625;DHT22;10974;51.034;3.744;2022-08-19T04:13:49;17.10;99.90
21625;DHT22;10974;51.034;3.744;2022-08-19T04:16:17;17.00;99.90
21625;DHT22;10974;51.034;3.744;2022-08-19T04:18:43;17.10;99.90
21625;DHT22;10974;51.034;3.744;2022-08-19T04:21:15;17.20;99.90
21625;DHT22;10974;51.034;3.744;2022-08-19T04:23:41;17.20;99.90
21625;DHT22;10974;51.034;3.744;2022-08-19T04:26:07;17.30;99.90
21625;DHT22;10974;51.034;3.744;2022-08-19T04:28:37;17.30;99.90
21625;DHT22;10974;51.034;3.744;2022-08-19T04:31:02;17.10;99.90
21625;DHT22;10974;51.034;3.744;2022-08-19T04:33:28;17.00;99.90
21625;DHT22;10974;51.034;3.744;2022-08-19T04:35:54;17.00;99.90
21625;DHT22;10974;51.034;3.744;2022-08-19T04:38:21;17.10;99.90
21625;DHT22;10974;51.034;3.744;2022-08-19T04:40:51;17.10;99.90
21625;DHT22;10974;51.034;3.744;2022-08-19T04:43:38;17.00;99.90
21625;DHT22;10974;51.034;3.744;2022-08-19T04:46:11;17.00;99.90
21625;DHT22;10974;51.034;3.744;2022-08-19T04:48:38;17.00;99.90
21625;DHT22;10974;51.034;3.744;2022-08-19T04:51:09;17.00;99.90
21625;DHT22;10974;51.034;3.744;2022-08-19T04:53:37;16.90;99.90
21625;DHT22;10974;51.034;3.744;2022-08-19T04:56:17;17.00;99.90
21625;DHT22;10974;51.034;3.744;2022-08-19T04:58:45;17.00;99.90
21625;DHT22;10974;51.034;3.744;2022-08-19T05:01:20;17.10;99.90
21625;DHT22;10974;51.034;3.744;2022-08-19T05:03:47;17.10;99.90
21625;DHT22;10974;51.034;3.744;2022-08-19T05:06:15;17.30;99.90
21625;DHT22;10974;51.034;3.744;2022-08-19T05:08:42;18.10;99.90
21625;DHT22;10974;51.034;3.744;2022-08-19T05:11:17;18.70;99.90
21625;DHT22;10974;51.034;3.744;2022-08-19T05:13:44;19.30;99.90
21625;DHT22;10974;51.034;3.744;2022-08-19T05:16:12;19.70;99.90
21625;DHT22;10974;51.034;3.744;2022-08-19T05:18:39;19.90;99.90
21625;DHT22;10974;51.034;3.744;2022-08-19T05:21:25;20.10;99.90
21625;DHT22;10974;51.034;3.744;2022-08-19T05:24:10;20.30;99.90
21625;DHT22;10974;51.034;3.744;2022-08-19T05:26:41;20.60;99.90
21625;DHT22;10974;51.034;3.744;2022-08-19T05:29:08;20.80;99.90
21625;DHT22;10974;51.034;3.744;2022-08-19T05:31:36;21.00;99.90
21625;DHT22;10974;51.034;3.744;2022-08-19T05:34:03;21.10;99.90
21625;DHT22;10974;51.034;3.744;2022-08-19T05:36:34;21.10;99.90
21625;DHT22;10974;51.034;3.744;2022-08-19T05:39:02;21.20;99.90
21625;DHT22;10974;51.034;3.744;2022-08-19T05:41:28;21.40;99.90
21625;DHT22;10974;51.034;3.744;2022-08-19T05:43:55;21.40;99.90
21625;DHT22;10974;51.034;3.744;2022-08-19T05:46:21;21.30;99.90
21625;DHT22;10974;51.034;3.744;2022-08-19T05:48:47;21.70;99.90
21625;DHT22;10974;51.034;3.744;2022-08-19T05:51:14;21.70;99.90
21625;DHT22;10974;51.034;3.744;2022-08-19T05:53:42;21.80;99.90
21625;DHT22;10974;51.034;3.744;2022-08-19T05:56:13;22.00;99.90
21625;DHT22;10974;51.034;3.744;2022-08-19T05:58:43;22.20;99.90
21625;DHT22;10974;51.034;3.744;2022-08-19T06:01:12;22.10;99.90
21625;DHT22;10974;51.034;3.744;2022-08-19T06:03:38;22.20;99.90
21625;DHT22;10974;51.034;3.744;2022-08-19T06:06:09;22.30;99.90
21625;DHT22;10974;51.034;3.744;2022-08-19T06:08:36;22.50;99.90
21625;DHT22;10974;51.034;3.744;2022-08-19T06:11:17;22.20;99.90
21625;DHT22;10974;51.034;3.744;2022-08-19T06:13:44;22.20;99.90
21625;DHT22;10974;51.034;3.744;2022-08-19T06:16:13;22.40;99.90
21625;DHT22;10974;51.034;3.744;2022-08-19T06:18:46;22.50;99.90
21625;DHT22;10974;51.034;3.744;2022-08-19T06:21:11;22.70;99.90
21625;DHT22;10974;51.034;3.744;2022-08-19T06:23:38;22.90;99.90
21625;DHT22;10974;51.034;3.744;2022-08-19T06:26:05;23.00;99.90
21625;DHT22;10974;51.034;3.744;2022-08-19T06:28:30;23.00;99.90
21625;DHT22;10974;51.034;3.744;2022-08-19T06:30:58;22.90;99.90
21625;DHT22;10974;51.034;3.744;2022-08-19T06:33:24;22.90;99.90
21625;DHT22;10974;51.034;3.744;2022-08-19T06:35:49;22.90;99.90
21625;DHT22;10974;51.034;3.744;2022-08-19T06:38:15;22.60;99.90
21625;DHT22;10974;51.034;3.744;2022-08-19T06:40:41;22.60;99.90
21625;DHT22;10974;51.034;3.744;2022-08-19T06:43:06;22.80;99.90
21625;DHT22;10974;51.034;3.744;2022-08-19T06:45:32;22.90;99.90
21625;DHT22;10974;51.034;3.744;2022-08-19T06:47:58;22.70;99.90
21625;DHT22;10974;51.034;3.744;2022-08-19T06:50:23;22.80;99.90
21625;DHT22;10974;51.034;3.744;2022-08-19T06:52:49;22.80;99.90
21625;DHT22;10974;51.034;3.744;2022-08-19T06:55:15;22.90;99.90
21625;DHT22;10974;51.034;3.744;2022-08-19T06:57:41;23.00;99.90
21625;DHT22;10974;51.034;3.744;2022-08-19T07:00:08;23.00;99.90
21625;DHT22;10974;51.034;3.744;2022-08-19T07:02:43;22.90;99.90
21625;DHT22;10974;51.034;3.744;2022-08-19T07:05:09;22.90;99.90
21625;DHT22;10974;51.034;3.744;2022-08-19T07:07:35;22.90;99.90
21625;DHT22;10974;51.034;3.744;2022-08-19T07:10:02;22.70;99.90
21625;DHT22;10974;51.034;3.744;2022-08-19T07:12:30;22.70;99.90
21625;DHT22;10974;51.034;3.744;2022-08-19T07:14:58;22.70;99.90
21625;DHT22;10974;51.034;3.744;2022-08-19T07:17:25;22.60;99.90
21625;DHT22;10974;51.034;3.744;2022-08-19T07:19:51;22.70;99.90
21625;DHT22;10974;51.034;3.744;2022-08-19T07:22:16;22.50;99.90
21625;DHT22;10974;51.034;3.744;2022-08-19T07:24:43;22.30;99.90
21625;DHT22;10974;51.034;3.744;2022-08-19T07:27:09;22.50;99.90
21625;DHT22;10974;51.034;3.744;2022-08-19T07:29:36;22.80;99.90
21625;DHT22;10974;51.034;3.744;2022-08-19T07:32:03;22.90;99.90
21625;DHT22;10974;51.034;3.744;2022-08-19T07:34:30;22.80;99.90
21625;DHT22;10974;51.034;3.744;2022-08-19T07:36:56;22.90;99.90
21625;DHT22;10974;51.034;3.744;2022-08-19T07:39:29;23.10;99.90
21625;DHT22;10974;51.034;3.744;2022-08-19T07:41:56;23.20;99.90
21625;DHT22;10974;51.034;3.744;2022-08-19T07:44:23;23.30;99.90
21625;DHT22;10974;51.034;3.744;2022-08-19T07:46:52;23.20;99.90
21625;DHT22;10974;51.034;3.744;2022-08-19T07:49:19;23.00;99.90
21625;DHT22;10974;51.034;3.744;2022-08-19T07:51:51;23.10;99.90
21625;DHT22;10974;51.034;3.744;2022-08-19T07:54:19;23.20;99.90
21625;DHT22;10974;51.034;3.744;2022-08-19T07:56:45;23.20;99.90
21625;DHT22;10974;51.034;3.744;2022-08-19T07:59:11;23.20;99.90
21625;DHT22;10974;51.034;3.744;2022-08-19T08:01:37;23.30;99.90
21625;DHT22;10974;51.034;3.744;2022-08-19T08:04:06;23.20;99.90
21625;DHT22;10974;51.034;3.744;2022-08-19T08:06:52;23.20;99.90
21625;DHT22;10974;51.034;3.744;2022-08-19T08:09:39;23.30;99.90
21625;DHT22;10974;51.034;3.744;2022-08-19T08:12:28;23.20;99.90
21625;DHT22;10974;51.034;3.744;2022-08-19T08:14:58;23.40;99.90
21625;DHT22;10974;51.034;3.744;2022-08-19T08:17:27;23.40;99.90
21625;DHT22;10974;51.034;3.744;2022-08-19T08:19:53;23.20;99.90
21625;DHT22;10974;51.034;3.744;2022-08-19T08:22:21;23.20;99.90
21625;DHT22;10974;51.034;3.744;2022-08-19T08:25:19;23.30;99.90
21625;DHT22;10974;51.034;3.744;2022-08-19T08:27:46;23.30;99.90
21625;DHT22;10974;51.034;3.744;2022-08-19T08:30:21;23.40;99.90
21625;DHT22;10974;51.034;3.744;2022-08-19T08:32:48;23.40;99.90
21625;DHT22;10974;51.034;3.744;2022-08-19T08:35:16;23.40;99.90
21625;DHT22;10974;51.034;3.744;2022-08-19T08:37:43;23.40;99.90
21625;DHT22;10974;51.034;3.744;2022-08-19T08:43:19;23.30;99.90
21625;DHT22;10974;51.034;3.744;2022-08-19T08:45:57;23.20;99.90
21625;DHT22;10974;51.034;3.744;2022-08-19T08:48:46;23.30;99.90
21625;DHT22;10974;51.034;3.744;2022-08-19T08:51:29;23.00;99.90
21625;DHT22;10974;51.034;3.744;2022-08-19T08:53:59;23.10;99.90
21625;DHT22;10974;51.034;3.744;2022-08-19T08:56:26;23.30;99.90
21625;DHT22;10974;51.034;3.744;2022-08-19T08:59:12;23.30;99.90
21625;DHT22;10974;51.034;3.744;2022-08-19T09:01:40;23.40;99.90
21625;DHT22;10974;51.034;3.744;2022-08-19T09:04:07;23.40;99.90
21625;DHT22;10974;51.034;3.744;2022-08-19T09:06:50;23.40;99.90
21625;DHT22;10974;51.034;3.744;2022-08-19T09:09:25;23.20;99.90
21625;DHT22;10974;51.034;3.744;2022-08-19T09:17:03;23.10;99.90
21625;DHT22;10974;51.034;3.744;2022-08-19T09:22:37;23.20;99.90
21625;DHT22;10974;51.034;3.744;2022-08-19T09:25:06;23.40;99.90
21625;DHT22;10974;51.034;3.744;2022-08-19T09:27:32;23.40;99.90
21625;DHT22;10974;51.034;3.744;2022-08-19T09:29:58;23.40;99.90
21625;DHT22;10974;51.034;3.744;2022-08-19T09:32:24;23.50;99.90
21625;DHT22;10974;51.034;3.744;2022-08-19T09:34:51;23.50;99.90
21625;DHT22;10974;51.034;3.744;2022-08-19T09:37:20;23.60;99.90
21625;DHT22;10974;51.034;3.744;2022-08-19T09:39:47;23.50;99.90
21625;DHT22;10974;51.034;3.744;2022-08-19T09:42:13;23.60;99.90
21625;DHT22;10974;51.034;3.744;2022-08-19T09:44:40;23.60;99.90
21625;DHT22;10974;51.034;3.744;2022-08-19T09:47:08;23.70;99.90
21625;DHT22;10974;51.034;3.744;2022-08-19T09:49:35;23.70;99.90
21625;DHT22;10974;51.034;3.744;2022-08-19T09:52:01;23.70;99.90
21625;DHT22;10974;51.034;3.744;2022-08-19T09:54:27;23.60;99.90
21625;DHT22;10974;51.034;3.744;2022-08-19T09:56:54;23.40;99.90
21625;DHT22;10974;51.034;3.744;2022-08-19T09:59:20;23.20;99.90
21625;DHT22;10974;51.034;3.744;2022-08-19T10:01:46;23.10;99.90
21625;DHT22;10974;51.034;3.744;2022-08-19T10:04:12;23.30;99.90
21625;DHT22;10974;51.034;3.744;2022-08-19T10:06:38;23.40;99.90
21625;DHT22;10974;51.034;3.744;2022-08-19T10:09:09;23.30;99.90
21625;DHT22;10974;51.034;3.744;2022-08-19T10:11:36;23.20;99.90
21625;DHT22;10974;51.034;3.744;2022-08-19T10:14:04;23.00;99.90
21625;DHT22;10974;51.034;3.744;2022-08-19T10:16:33;22.90;99.90
21625;DHT22;10974;51.034;3.744;2022-08-19T10:18:59;23.00;99.90
21625;DHT22;10974;51.034;3.744;2022-08-19T10:21:32;23.10;99.90
21625;DHT22;10974;51.034;3.744;2022-08-19T10:24:01;23.20;99.90
21625;DHT22;10974;51.034;3.744;2022-08-19T10:26:32;23.30;99.90
21625;DHT22;10974;51.034;3.744;2022-08-19T10:28:59;23.50;99.90
21625;DHT22;10974;51.034;3.744;2022-08-19T10:31:28;23.50;99.90
21625;DHT22;10974;51.034;3.744;2022-08-19T10:33:55;23.40;99.90
21625;DHT22;10974;51.034;3.744;2022-08-19T10:36:34;23.50;99.90
21625;DHT22;10974;51.034;3.744;2022-08-19T10:39:08;23.70;99.90
21625;DHT22;10974;51.034;3.744;2022-08-19T10:41:35;23.60;99.90
21625;DHT22;10974;51.034;3.744;2022-08-19T10:44:05;23.60;99.90
21625;DHT22;10974;51.034;3.744;2022-08-19T10:46:32;23.50;99.90
21625;DHT22;10974;51.034;3.744;2022-08-19T10:49:01;23.40;99.90
21625;DHT22;10974;51.034;3.744;2022-08-19T10:51:27;23.30;99.90
21625;DHT22;10974;51.034;3.744;2022-08-19T10:54:12;23.30;99.90
21625;DHT22;10974;51.034;3.744;2022-08-19T10:56:37;23.40;99.90
21625;DHT22;10974;51.034;3.744;2022-08-19T11:01:45;23.50;99.90
21625;DHT22;10974;51.034;3.744;2022-08-19T11:04:11;23.50;99.90
21625;DHT22;10974;51.034;3.744;2022-08-19T11:06:40;23.30;99.90
21625;DHT22;10974;51.034;3.744;2022-08-19T11:09:07;23.10;99.90
21625;DHT22;10974;51.034;3.744;2022-08-19T11:11:34;23.10;99.90
21625;DHT22;10974;51.034;3.744;2022-08-19T11:14:09;23.20;99.90
21625;DHT22;10974;51.034;3.744;2022-08-19T11:16:36;23.30;99.90
21625;DHT22;10974;51.034;3.744;2022-08-19T11:19:03;23.40;99.90
21625;DHT22;10974;51.034;3.744;2022-08-19T11:21:34;23.60;99.90
21625;DHT22;10974;51.034;3.744;2022-08-19T11:24:03;23.70;99.90
21625;DHT22;10974;51.034;3.744;2022-08-19T11:26:31;23.70;99.90
21625;DHT22;10974;51.034;3.744;2022-08-19T11:28:57;23.80;99.90
21625;DHT22;10974;51.034;3.744;2022-08-19T11:31:26;23.80;99.90
21625;DHT22;10974;51.034;3.744;2022-08-19T11:33:53;23.80;99.90
21625;DHT22;10974;51.034;3.744;2022-08-19T11:36:20;23.50;99.90
21625;DHT22;10974;51.034;3.744;2022-08-19T11:38:49;23.40;99.90
21625;DHT22;10974;51.034;3.744;2022-08-19T11:41:17;23.30;99.90
21625;DHT22;10974;51.034;3.744;2022-08-19T11:43:43;23.30;99.90
21625;DHT22;10974;51.034;3.744;2022-08-19T11:46:11;23.30;99.90
21625;DHT22;10974;51.034;3.744;2022-08-19T11:48:38;23.30;99.90
21625;DHT22;10974;51.034;3.744;2022-08-19T11:51:10;23.40;99.90
21625;DHT22;10974;51.034;3.744;2022-08-19T11:53:38;23.50;99.90
21625;DHT22;10974;51.034;3.744;2022-08-19T11:56:05;23.60;99.90
21625;DHT22;10974;51.034;3.744;2022-08-19T11:58:32;23.60;99.90
21625;DHT22;10974;51.034;3.744;2022-08-19T12:00:58;23.60;99.90
21625;DHT22;10974;51.034;3.744;2022-08-19T12:03:23;23.80;99.90
21625;DHT22;10974;51.034;3.744;2022-08-19T12:05:50;23.80;99.90
21625;DHT22;10974;51.034;3.744;2022-08-19T12:08:17;23.90;99.90
21625;DHT22;10974;51.034;3.744;2022-08-19T12:10:43;24.00;99.90
21625;DHT22;10974;51.034;3.744;2022-08-19T12:13:09;24.00;99.90
21625;DHT22;10974;51.034;3.744;2022-08-19T12:15:37;24.00;99.90
21625;DHT22;10974;51.034;3.744;2022-08-19T12:18:04;23.80;99.90
21625;DHT22;10974;51.034;3.744;2022-08-19T12:20:30;23.70;99.90
21625;DHT22;10974;51.034;3.744;2022-08-19T12:22:55;23.70;99.90
21625;DHT22;10974;51.034;3.744;2022-08-19T12:25:21;23.80;99.90
21625;DHT22;10974;51.034;3.744;2022-08-19T12:27:47;23.90;99.90
21625;DHT22;10974;51.034;3.744;2022-08-19T12:30:13;23.90;99.90
21625;DHT22;10974;51.034;3.744;2022-08-19T12:32:40;23.70;99.90
21625;DHT22;10974;51.034;3.744;2022-08-19T12:35:06;23.60;99.90
21625;DHT22;10974;51.034;3.744;2022-08-19T12:37:33;23.70;99.90
21625;DHT22;10974;51.034;3.744;2022-08-19T12:39:59;23.70;99.90
21625;DHT22;10974;51.034;3.744;2022-08-19T12:42:25;23.50;99.90
21625;DHT22;10974;51.034;3.744;2022-08-19T12:44:50;23.60;99.90
21625;DHT22;10974;51.034;3.744;2022-08-19T12:47:17;23.40;99.90
21625;DHT22;10974;51.034;3.744;2022-08-19T12:49:43;23.40;99.90
21625;DHT22;10974;51.034;3.744;2022-08-19T12:52:10;23.30;99.90
21625;DHT22;10974;51.034;3.744;2022-08-19T12:54:37;23.10;99.90
21625;DHT22;10974;51.034;3.744;2022-08-19T12:57:07;23.00;99.90
21625;DHT22;10974;51.034;3.744;2022-08-19T12:59:34;23.00;99.90
21625;DHT22;10974;51.034;3.744;2022-08-19T13:02:02;23.10;99.90
21625;DHT22;10974;51.034;3.744;2022-08-19T13:04:29;23.10;99.90
21625;DHT22;10974;51.034;3.744;2022-08-19T13:06:55;23.20;99.90
21625;DHT22;10974;51.034;3.744;2022-08-19T13:09:22;23.40;99.90
21625;DHT22;10974;51.034;3.744;2022-08-19T13:11:47;23.40;99.90
21625;DHT22;10974;51.034;3.744;2022-08-19T13:14:13;23.50;99.90
21625;DHT22;10974;51.034;3.744;2022-08-19T13:16:38;23.60;99.90
21625;DHT22;10974;51.034;3.744;2022-08-19T13:19:05;23.60;99.90
21625;DHT22;10974;51.034;3.744;2022-08-19T13:21:31;23.70;99.90
21625;DHT22;10974;51.034;3.744;2022-08-19T13:23:57;23.80;99.90
21625;DHT22;10974;51.034;3.744;2022-08-19T13:26:23;23.90;99.90
21625;DHT22;10974;51.034;3.744;2022-08-19T13:28:49;23.90;99.90
21625;DHT22;10974;51.034;3.744;2022-08-19T13:31:35;23.90;99.90
21625;DHT22;10974;51.034;3.744;2022-08-19T13:34:27;24.00;99.90
21625;DHT22;10974;51.034;3.744;2022-08-19T13:36:54;24.00;99.90
21625;DHT22;10974;51.034;3.744;2022-08-19T13:39:19;24.00;99.90
21625;DHT22;10974;51.034;3.744;2022-08-19T13:41:46;24.00;99.90
21625;DHT22;10974;51.034;3.744;2022-08-19T13:44:14;24.10;99.90
21625;DHT22;10974;51.034;3.744;2022-08-19T13:46:41;24.10;99.90
21625;DHT22;10974;51.034;3.744;2022-08-19T13:49:11;24.10;99.90
21625;DHT22;10974;51.034;3.744;2022-08-19T13:51:38;24.10;99.90
21625;DHT22;10974;51.034;3.744;2022-08-19T13:54:09;24.10;99.90
21625;DHT22;10974;51.034;3.744;2022-08-19T13:56:39;24.10;99.90
21625;DHT22;10974;51.034;3.744;2022-08-19T13:59:05;24.10;99.90
21625;DHT22;10974;51.034;3.744;2022-08-19T14:01:31;24.20;99.90
21625;DHT22;10974;51.034;3.744;2022-08-19T14:03:56;24.20;99.90
21625;DHT22;10974;51.034;3.744;2022-08-19T14:06:22;24.30;99.90
21625;DHT22;10974;51.034;3.744;2022-08-19T14:08:48;24.30;99.90
21625;DHT22;10974;51.034;3.744;2022-08-19T14:11:14;24.30;99.90
21625;DHT22;10974;51.034;3.744;2022-08-19T14:13:40;24.30;99.90
21625;DHT22;10974;51.034;3.744;2022-08-19T14:16:08;24.30;99.90
21625;DHT22;10974;51.034;3.744;2022-08-19T14:18:34;24.30;99.90
21625;DHT22;10974;51.034;3.744;2022-08-19T14:21:00;24.30;99.90
21625;DHT22;10974;51.034;3.744;2022-08-19T14:23:26;24.30;99.90
21625;DHT22;10974;51.034;3.744;2022-08-19T14:25:52;24.40;99.90
21625;DHT22;10974;51.034;3.744;2022-08-19T14:28:17;24.40;99.90
21625;DHT22;10974;51.034;3.744;2022-08-19T14:30:43;24.40;99.90
21625;DHT22;10974;51.034;3.744;2022-08-19T14:33:09;24.40;99.90
21625;DHT22;10974;51.034;3.744;2022-08-19T14:35:36;24.40;99.90
21625;DHT22;10974;51.034;3.744;2022-08-19T14:38:04;24.50;99.90
21625;DHT22;10974;51.034;3.744;2022-08-19T14:40:31;24.50;99.90
21625;DHT22;10974;51.034;3.744;2022-08-19T14:43:00;24.40;99.90
21625;DHT22;10974;51.034;3.744;2022-08-19T14:45:35;24.40;99.90
21625;DHT22;10974;51.034;3.744;2022-08-19T14:48:01;24.40;99.90
21625;DHT22;10974;51.034;3.744;2022-08-19T14:50:27;24.40;99.90
21625;DHT22;10974;51.034;3.744;2022-08-19T14:53:01;24.30;99.90
21625;DHT22;10974;51.034;3.744;2022-08-19T14:55:30;24.30;99.90
21625;DHT22;10974;51.034;3.744;2022-08-19T14:57:56;24.40;99.90
21625;DHT22;10974;51.034;3.744;2022-08-19T15:00:22;24.40;99.90
21625;DHT22;10974;51.034;3.744;2022-08-19T15:02:49;24.40;99.90
21625;DHT22;10974;51.034;3.744;2022-08-19T15:05:15;24.50;99.90
21625;DHT22;10974;51.034;3.744;2022-08-19T15:07:42;24.50;99.90
21625;DHT22;10974;51.034;3.744;2022-08-19T15:10:09;24.50;99.90
21625;DHT22;10974;51.034;3.744;2022-08-19T15:12:36;24.50;99.90
21625;DHT22;10974;51.034;3.744;2022-08-19T15:15:10;24.50;99.90
21625;DHT22;10974;51.034;3.744;2022-08-19T15:17:38;24.50;99.90
21625;DHT22;10974;51.034;3.744;2022-08-19T15:20:06;24.70;99.90
21625;DHT22;10974;51.034;3.744;2022-08-19T15:22:32;24.60;99.90
21625;DHT22;10974;51.034;3.744;2022-08-19T15:24:58;24.60;99.90
21625;DHT22;10974;51.034;3.744;2022-08-19T15:27:23;24.50;99.90
21625;DHT22;10974;51.034;3.744;2022-08-19T15:29:49;24.50;99.90
21625;DHT22;10974;51.034;3.744;2022-08-19T15:32:15;24.50;99.90
21625;DHT22;10974;51.034;3.744;2022-08-19T15:34:40;24.50;99.90
21625;DHT22;10974;51.034;3.744;2022-08-19T15:37:06;24.50;99.90
21625;DHT22;10974;51.034;3.744;2022-08-19T15:39:32;24.50;99.90
21625;DHT22;10974;51.034;3.744;2022-08-19T15:41:58;24.50;99.90
21625;DHT22;10974;51.034;3.744;2022-08-19T15:44:28;24.50;99.90
21625;DHT22;10974;51.034;3.744;2022-08-19T15:46:54;24.60;99.90
21625;DHT22;10974;51.034;3.744;2022-08-19T15:49:20;24.60;99.90
21625;DHT22;10974;51.034;3.744;2022-08-19T15:51:47;24.60;99.90